createdAt,value
2023-07-08T00:05:57.278Z,65.56
2023-07-08T00:16:00.438Z,66.22
2023-07-08T00:26:05.330Z,66.87
2023-07-08T00:36:13.776Z,67.12
2023-07-08T00:46:31.477Z,67.69
2023-07-08T00:56:40.238Z,68.24
2023-07-08T01:06:47.887Z,68.43
2023-07-08T01:16:52.038Z,68.71
2023-07-08T01:26:55.545Z,69.37
2023-07-08T01:37:00.016Z,69.80
2023-07-08T01:47:09.275Z,70.37
2023-07-08T01:57:12.306Z,70.56
2023-07-08T02:07:15.365Z,70.72
2023-07-08T02:17:18.327Z,71.08
2023-07-08T02:27:21.249Z,71.20
2023-07-08T02:37:24.317Z,71.65
2023-07-08T02:47:27.482Z,71.76
2023-07-08T02:57:30.842Z,71.84
2023-07-08T03:07:33.961Z,71.88
2023-07-08T03:17:36.930Z,70.80
2023-07-08T03:27:40.138Z,64.63
2023-07-08T03:37:43.332Z,60.64
2023-07-08T03:47:46.413Z,60.42
2023-07-08T03:57:50.266Z,61.16
2023-07-08T04:07:54.068Z,62.20
2023-07-08T04:17:57.730Z,53.24
2023-07-08T04:28:00.703Z,43.97
2023-07-08T04:38:09.724Z,36.77
2023-07-08T04:48:15.746Z,31.27
2023-07-08T04:58:18.899Z,27.41
2023-07-08T05:08:21.861Z,24.44
2023-07-08T05:18:24.873Z,21.99
2023-07-08T05:28:28.131Z,19.59
2023-07-08T05:38:31.376Z,17.71
2023-07-08T05:48:34.420Z,15.69
2023-07-08T05:58:37.397Z,14.37
2023-07-08T06:08:40.453Z,13.46
2023-07-08T06:18:43.359Z,12.51
2023-07-08T06:28:46.376Z,11.46
2023-07-08T06:38:49.350Z,10.75
2023-07-08T06:48:54.151Z,9.99
2023-07-08T06:58:57.264Z,9.25
2023-07-08T07:09:00.323Z,8.59
2023-07-08T07:19:03.309Z,8.35
2023-07-08T07:29:06.748Z,8.04
2023-07-08T07:39:09.906Z,7.76
2023-07-08T07:49:12.838Z,7.21
2023-07-08T07:59:15.964Z,7.72
2023-07-08T08:09:18.963Z,9.57
2023-07-08T08:19:23.041Z,12.03
2023-07-08T08:29:26.050Z,14.51
2023-07-08T08:39:30.535Z,15.89
2023-07-08T08:49:42.744Z,17.19
2023-07-08T08:59:54.270Z,18.04
2023-07-08T09:10:05.376Z,18.61
2023-07-08T09:20:21.657Z,19.34
2023-07-08T09:30:26.846Z,20.09
2023-07-08T09:40:32.922Z,20.66
2023-07-08T09:50:37.479Z,21.08
2023-07-08T10:00:42.516Z,21.44
2023-07-08T10:10:47.787Z,21.90
2023-07-08T10:21:00.397Z,22.42
2023-07-08T10:31:27.848Z,22.48
2023-07-08T10:41:44.489Z,22.83
2023-07-08T10:51:54.745Z,23.19
2023-07-08T11:02:16.310Z,23.35
2023-07-08T11:12:27.990Z,23.43
2023-07-08T11:22:32.955Z,23.38
2023-07-08T11:32:37.245Z,23.69
2023-07-08T11:42:46.037Z,24.14
2023-07-08T11:52:54.268Z,23.94
2023-07-08T12:02:59.365Z,24.16
2023-07-08T12:13:03.322Z,23.98
2023-07-08T12:23:13.416Z,24.07
2023-07-08T12:33:19.394Z,24.12
2023-07-08T12:43:22.543Z,23.73
2023-07-08T12:53:25.433Z,23.79
2023-07-08T13:03:31.008Z,24.24
2023-07-08T13:13:37.411Z,24.03
2023-07-08T13:23:41.250Z,24.01
2023-07-08T13:33:48.878Z,24.11
2023-07-08T13:43:52.273Z,24.35
2023-07-08T13:54:00.612Z,24.67
2023-07-08T14:04:05.141Z,24.59
2023-07-08T14:14:09.697Z,24.15
2023-07-08T14:24:14.813Z,24.25
2023-07-08T14:34:22.793Z,24.59
2023-07-08T14:44:31.375Z,24.65
2023-07-08T14:54:34.732Z,24.81
2023-07-08T15:04:37.681Z,24.75
2023-07-08T15:14:41.265Z,24.94
2023-07-08T15:24:44.440Z,25.30
2023-07-08T15:34:47.648Z,25.07
2023-07-08T15:44:52.636Z,25.41
2023-07-08T15:54:55.581Z,25.36
2023-07-08T16:04:58.981Z,25.45
2023-07-08T16:15:02.203Z,25.61
2023-07-08T16:25:06.913Z,25.87
2023-07-08T16:35:11.452Z,26.17
2023-07-08T16:45:16.905Z,25.68
2023-07-08T16:55:21.952Z,26.02
2023-07-08T17:05:29.123Z,25.96
2023-07-08T17:15:32.721Z,26.27
2023-07-08T17:25:35.696Z,26.62
2023-07-08T17:35:38.599Z,28.01
2023-07-08T17:45:45.925Z,28.84
2023-07-08T17:55:51.918Z,29.46
2023-07-08T18:05:54.846Z,30.80
2023-07-08T18:15:57.761Z,32.09
2023-07-08T18:26:01.126Z,32.09
2023-07-08T18:36:05.961Z,32.92
2023-07-08T18:46:11.629Z,34.49
2023-07-08T18:56:17.074Z,36.00
2023-07-08T19:06:20.577Z,36.97
2023-07-08T19:16:23.920Z,36.81
2023-07-08T19:26:27.830Z,36.56
2023-07-08T19:36:32.751Z,36.79
2023-07-08T19:46:35.672Z,38.10
2023-07-08T19:56:39.051Z,39.88
2023-07-08T20:06:43.490Z,41.32
2023-07-08T20:16:48.360Z,42.98
2023-07-08T20:26:51.674Z,43.89
2023-07-08T20:36:54.833Z,44.83
2023-07-08T20:46:57.922Z,46.18
2023-07-08T20:57:01.106Z,47.12
2023-07-08T21:07:05.341Z,48.34
2023-07-08T21:17:15.780Z,49.60
2023-07-08T21:27:22.902Z,50.94
2023-07-08T21:37:26.062Z,51.91
2023-07-08T21:47:29.409Z,52.91
2023-07-08T21:57:32.494Z,53.53
2023-07-08T22:07:35.643Z,54.00
2023-07-08T22:17:38.687Z,54.01
2023-07-08T22:27:42.127Z,54.49
2023-07-08T22:37:45.061Z,53.02
2023-07-08T22:47:49.009Z,51.39
2023-07-08T22:57:52.393Z,50.47
2023-07-08T23:07:56.320Z,50.87
2023-07-08T23:17:59.326Z,51.10
2023-07-08T23:28:02.721Z,50.06
2023-07-08T23:38:05.735Z,49.69
2023-07-08T23:48:13.352Z,50.87
2023-07-08T23:58:21.137Z,52.01
